Time;durP1;ratioP1;P1;durP2;ratioP2;P2;SDS_P1;SDS_P2;PMS_P1;PMS_P2;Temp;Humidity;BMP_temperature;BMP_pressure;BME280_temperature;BME280_humidity;BME280_pressure;Samples;Min_cycle;Max_cycle;Signal;HPM_P1;HPM_P2
2022/01/08 00:00:05;;;;;;;;;;;-0.70;99.90;;;;;;5075055;28;20069;-52
2022/01/08 00:02:32;;;;;;;;;;;-0.70;99.90;;;;;;5074725;28;19929;-52
2022/01/08 00:05:00;;;;;;;;;;;-0.60;99.90;;;;;;5074110;28;19924;-52
2022/01/08 00:07:26;;;;;;;;;;;-0.60;99.90;;;;;;5074219;28;19967;-53
2022/01/08 00:09:54;;;;;;;;;;;-0.60;99.90;;;;;;5074955;28;19970;-52
2022/01/08 00:12:22;;;;;;;;;;;-0.50;99.90;;;;;;5074397;28;20007;-52
2022/01/08 00:14:49;;;;;;;;;;;-0.50;99.90;;;;;;5074618;28;20333;-52
2022/01/08 00:17:16;;;;;;;;;;;-0.50;99.90;;;;;;5075449;28;19925;-51
2022/01/08 00:19:43;;;;;;;;;;;-0.60;99.90;;;;;;5074579;28;19970;-52
2022/01/08 00:22:11;;;;;;;;;;;-0.50;99.90;;;;;;5074859;28;19925;-52
2022/01/08 00:24:37;;;;;;;;;;;-0.40;99.90;;;;;;5073795;28;19924;-52
2022/01/08 00:27:06;;;;;;;;;;;-0.50;99.90;;;;;;5074835;28;19942;-51
2022/01/08 00:29:32;;;;;;;;;;;-0.40;99.90;;;;;;5074555;28;19970;-51
2022/01/08 00:31:59;;;;;;;;;;;-0.50;99.90;;;;;;5074852;28;19928;-52
2022/01/08 00:34:26;;;;;;;;;;;-0.60;99.90;;;;;;5073610;28;20377;-49
2022/01/08 00:36:53;;;;;;;;;;;-0.60;99.90;;;;;;5074489;28;20340;-49
2022/01/08 00:39:19;;;;;;;;;;;-0.50;99.90;;;;;;5074280;28;20394;-53
2022/01/08 00:41:46;;;;;;;;;;;-0.60;99.90;;;;;;5074397;28;19924;-52
2022/01/08 00:44:16;;;;;;;;;;;-0.60;99.90;;;;;;5076521;28;20332;-51
2022/01/08 00:46:43;;;;;;;;;;;-0.60;99.90;;;;;;5092886;28;19993;-51
2022/01/08 00:49:10;;;;;;;;;;;-0.60;99.90;;;;;;5073827;28;20449;-53
2022/01/08 00:51:36;;;;;;;;;;;-0.60;99.90;;;;;;5071815;28;20524;-51
2022/01/08 00:54:03;;;;;;;;;;;-0.60;99.90;;;;;;5073702;28;19925;-50
2022/01/08 00:56:30;;;;;;;;;;;-0.50;99.90;;;;;;5074444;28;19925;-50
2022/01/08 00:58:57;;;;;;;;;;;-0.50;99.90;;;;;;5073488;28;19977;-50
2022/01/08 01:01:25;;;;;;;;;;;-0.60;99.90;;;;;;5073798;28;19970;-49
2022/01/08 01:03:52;;;;;;;;;;;-0.50;99.90;;;;;;5074123;28;20424;-50
2022/01/08 01:06:18;;;;;;;;;;;-0.60;99.90;;;;;;5074009;28;19924;-50
2022/01/08 01:08:45;;;;;;;;;;;-0.50;99.90;;;;;;5073253;28;20023;-49
2022/01/08 01:11:12;;;;;;;;;;;-0.50;99.90;;;;;;5073650;28;19933;-49
2022/01/08 01:13:39;;;;;;;;;;;-0.50;99.90;;;;;;5073569;28;19928;-50
2022/01/08 01:16:06;;;;;;;;;;;-0.50;99.90;;;;;;5073828;28;19925;-49
2022/01/08 01:18:35;;;;;;;;;;;-0.50;99.90;;;;;;5072568;28;20340;-50
2022/01/08 01:21:02;;;;;;;;;;;-0.50;99.90;;;;;;5073899;28;19928;-50
2022/01/08 01:23:33;;;;;;;;;;;-0.50;99.90;;;;;;5073213;28;20011;-50
2022/01/08 01:26:03;;;;;;;;;;;-0.50;99.90;;;;;;5073305;28;19935;-49
2022/01/08 01:28:42;;;;;;;;;;;-0.60;99.90;;;;;;5073130;28;19924;-49
2022/01/08 01:47:33;;;;;;;;;;;-0.60;99.90;;;;;;5072487;28;19978;-50
2022/01/08 01:50:02;;;;;;;;;;;-0.50;99.90;;;;;;5073198;28;20027;-50
2022/01/08 01:52:30;;;;;;;;;;;-0.50;99.90;;;;;;5073283;28;19924;-50
2022/01/08 01:54:57;;;;;;;;;;;-0.40;99.90;;;;;;5073111;28;20374;-50
2022/01/08 01:57:24;;;;;;;;;;;-0.30;99.90;;;;;;5072945;28;20011;-50
2022/01/08 01:59:51;;;;;;;;;;;-0.20;99.90;;;;;;5072932;28;19928;-49
2022/01/08 02:02:17;;;;;;;;;;;-0.20;99.90;;;;;;5071630;28;19929;-50
2022/01/08 02:04:44;;;;;;;;;;;-0.10;99.90;;;;;;5073085;28;19928;-50
2022/01/08 02:07:12;;;;;;;;;;;0.00;99.90;;;;;;5072518;28;19970;-50
2022/01/08 02:09:40;;;;;;;;;;;-0.10;99.90;;;;;;5072779;28;19978;-50
2022/01/08 02:12:07;;;;;;;;;;;-0.10;99.90;;;;;;5072816;28;19974;-50
2022/01/08 02:14:35;;;;;;;;;;;-0.20;99.90;;;;;;5072558;28;19979;-50
2022/01/08 02:17:04;;;;;;;;;;;-0.10;99.90;;;;;;5072619;28;19985;-50
2022/01/08 02:19:31;;;;;;;;;;;-0.10;99.90;;;;;;5069364;28;19924;-50
2022/01/08 02:22:00;;;;;;;;;;;-0.10;99.90;;;;;;5072118;28;19924;-50
2022/01/08 02:24:27;;;;;;;;;;;-0.10;99.90;;;;;;5072351;28;19928;-50
2022/01/08 02:26:54;;;;;;;;;;;-0.10;99.90;;;;;;5071951;28;19955;-50
2022/01/08 02:29:21;;;;;;;;;;;0.00;99.90;;;;;;5072332;28;19986;-50
2022/01/08 02:31:56;;;;;;;;;;;0.00;99.90;;;;;;5072241;28;20348;-50
2022/01/08 02:34:22;;;;;;;;;;;0.10;99.90;;;;;;5071732;28;19928;-51
2022/01/08 02:36:49;;;;;;;;;;;0.10;99.90;;;;;;5072728;28;19924;-51
2022/01/08 02:39:18;;;;;;;;;;;0.10;99.90;;;;;;5071854;28;19997;-50
2022/01/08 02:41:44;;;;;;;;;;;0.10;99.90;;;;;;5072271;28;19978;-49
2022/01/08 02:44:12;;;;;;;;;;;0.20;99.90;;;;;;5071095;28;19958;-50
2022/01/08 02:46:39;;;;;;;;;;;0.20;99.90;;;;;;5072261;28;19970;-50
2022/01/08 02:49:06;;;;;;;;;;;0.20;99.90;;;;;;5072279;28;19978;-51
2022/01/08 02:51:35;;;;;;;;;;;0.20;99.90;;;;;;5071821;28;19935;-51
2022/01/08 02:54:02;;;;;;;;;;;0.30;99.90;;;;;;5071606;28;19924;-50
2022/01/08 02:56:30;;;;;;;;;;;0.40;99.90;;;;;;5072200;28;19928;-50
2022/01/08 02:58:57;;;;;;;;;;;0.40;99.90;;;;;;5071547;28;20394;-50
2022/01/08 03:01:23;;;;;;;;;;;0.30;99.90;;;;;;5071579;28;19978;-51
2022/01/08 03:03:52;;;;;;;;;;;0.40;99.90;;;;;;5071755;28;19970;-50
2022/01/08 03:06:19;;;;;;;;;;;0.50;99.90;;;;;;5071208;28;19925;-50
2022/01/08 03:08:45;;;;;;;;;;;0.50;99.90;;;;;;5051577;28;20002;-51
2022/01/08 03:11:12;;;;;;;;;;;0.40;99.90;;;;;;5051661;28;19924;-51
2022/01/08 03:13:40;;;;;;;;;;;0.50;99.90;;;;;;5065723;28;19970;-50
2022/01/08 03:16:07;;;;;;;;;;;0.60;99.90;;;;;;5071289;28;20386;-49
2022/01/08 03:18:36;;;;;;;;;;;0.70;99.90;;;;;;5071141;28;20298;-51
2022/01/08 03:21:13;;;;;;;;;;;0.70;99.90;;;;;;5071646;28;20374;-50
2022/01/08 03:23:46;;;;;;;;;;;0.70;99.90;;;;;;5070899;28;20015;-51
2022/01/08 03:26:13;;;;;;;;;;;0.70;99.90;;;;;;5071544;28;20394;-50
2022/01/08 03:28:41;;;;;;;;;;;0.80;99.90;;;;;;5071147;28;20015;-51
2022/01/08 03:31:08;;;;;;;;;;;0.80;99.90;;;;;;5071513;28;20398;-50
2022/01/08 03:33:35;;;;;;;;;;;0.80;99.90;;;;;;5075537;28;20466;-51
2022/01/08 03:36:02;;;;;;;;;;;0.80;99.90;;;;;;5114766;22;19928;-51
2022/01/08 03:38:29;;;;;;;;;;;0.70;99.90;;;;;;5094657;28;19924;-52
2022/01/08 03:40:56;;;;;;;;;;;0.70;99.90;;;;;;5096026;28;20022;-52
2022/01/08 03:43:23;;;;;;;;;;;0.80;99.90;;;;;;5096081;28;19928;-52
2022/01/08 03:45:51;;;;;;;;;;;0.80;99.90;;;;;;5081613;28;19925;-52
2022/01/08 03:48:27;;;;;;;;;;;0.90;99.90;;;;;;5075437;28;20374;-52
2022/01/08 03:50:53;;;;;;;;;;;1.10;99.90;;;;;;5075301;28;19970;-52
2022/01/08 03:53:20;;;;;;;;;;;1.20;99.90;;;;;;5075512;28;19928;-52
2022/01/08 03:55:47;;;;;;;;;;;1.20;99.90;;;;;;5075630;28;19978;-52
2022/01/08 03:58:14;;;;;;;;;;;1.20;99.90;;;;;;5074940;28;19924;-52
2022/01/08 04:00:41;;;;;;;;;;;1.20;99.90;;;;;;5075466;28;19928;-50
2022/01/08 04:03:09;;;;;;;;;;;1.10;99.90;;;;;;5075296;28;19924;-52
2022/01/08 04:05:36;;;;;;;;;;;1.30;99.90;;;;;;5075307;28;19924;-52
2022/01/08 04:08:03;;;;;;;;;;;1.30;99.90;;;;;;5074711;28;20297;-52
2022/01/08 04:10:30;;;;;;;;;;;1.40;99.90;;;;;;5073610;28;19988;-52
2022/01/08 04:13:03;;;;;;;;;;;1.50;99.90;;;;;;5074837;28;19978;-52
2022/01/08 04:15:37;;;;;;;;;;;1.50;99.90;;;;;;5075103;28;20374;-52
2022/01/08 04:18:04;;;;;;;;;;;1.50;99.90;;;;;;5074336;28;20240;-52
2022/01/08 04:20:34;;;;;;;;;;;1.50;99.90;;;;;;5075460;28;19986;-52
2022/01/08 04:23:01;;;;;;;;;;;1.60;99.90;;;;;;5055195;28;20012;-52
2022/01/08 04:25:28;;;;;;;;;;;1.50;99.90;;;;;;5055234;28;19924;-52
2022/01/08 04:27:58;;;;;;;;;;;1.50;99.90;;;;;;5064860;28;20015;-52
2022/01/08 04:30:24;;;;;;;;;;;1.50;99.90;;;;;;5056919;28;19971;-49
2022/01/08 04:32:55;;;;;;;;;;;1.50;99.90;;;;;;5074433;28;19986;-52
2022/01/08 04:35:21;;;;;;;;;;;1.50;99.90;;;;;;5074947;28;19924;-52
2022/01/08 04:37:50;;;;;;;;;;;1.50;99.90;;;;;;5074847;28;20398;-52
2022/01/08 04:40:16;;;;;;;;;;;1.50;99.90;;;;;;5074920;28;19929;-52
2022/01/08 04:42:43;;;;;;;;;;;1.50;99.90;;;;;;5073641;28;19929;-52
2022/01/08 04:45:10;;;;;;;;;;;1.50;99.90;;;;;;5074743;28;20340;-52
2022/01/08 04:47:37;;;;;;;;;;;1.50;99.90;;;;;;5074787;28;19971;-52
2022/01/08 04:50:04;;;;;;;;;;;1.60;99.90;;;;;;5074567;28;20386;-51
2022/01/08 04:52:31;;;;;;;;;;;1.50;99.90;;;;;;5074080;28;19978;-52
2022/01/08 04:54:59;;;;;;;;;;;1.40;99.90;;;;;;5074659;28;19924;-52
2022/01/08 04:57:26;;;;;;;;;;;1.40;99.90;;;;;;5074463;28;19925;-50
2022/01/08 04:59:53;;;;;;;;;;;1.40;99.90;;;;;;5074265;28;20398;-49
2022/01/08 05:02:19;;;;;;;;;;;1.40;99.90;;;;;;5074362;28;20459;-50
2022/01/08 05:04:46;;;;;;;;;;;1.50;99.90;;;;;;5074613;28;20317;-50
2022/01/08 05:07:13;;;;;;;;;;;1.60;99.90;;;;;;5074500;28;19928;-50
2022/01/08 05:09:40;;;;;;;;;;;1.70;99.90;;;;;;5074875;28;19924;-50
2022/01/08 05:12:09;;;;;;;;;;;1.60;99.90;;;;;;5074669;28;19924;-50
2022/01/08 05:14:35;;;;;;;;;;;1.60;99.90;;;;;;5074593;28;20402;-50
2022/01/08 05:17:02;;;;;;;;;;;1.60;99.90;;;;;;5074452;28;19943;-50
2022/01/08 05:19:40;;;;;;;;;;;1.70;99.90;;;;;;5072948;28;20397;-51
2022/01/08 05:22:09;;;;;;;;;;;1.60;99.90;;;;;;5073550;28;19925;-51
2022/01/08 05:24:36;;;;;;;;;;;1.60;99.90;;;;;;5073788;28;19947;-51
2022/01/08 05:27:06;;;;;;;;;;;1.60;99.90;;;;;;5073736;28;19931;-51
2022/01/08 05:29:35;;;;;;;;;;;1.60;99.90;;;;;;5072968;28;19924;-50
2022/01/08 05:32:02;;;;;;;;;;;1.70;99.90;;;;;;5074124;28;19924;-51
2022/01/08 05:34:29;;;;;;;;;;;1.70;99.90;;;;;;5073345;28;19951;-50
2022/01/08 05:36:55;;;;;;;;;;;1.60;99.90;;;;;;5073620;28;19928;-51
2022/01/08 05:39:22;;;;;;;;;;;1.60;99.90;;;;;;5073895;28;19924;-50
2022/01/08 05:41:49;;;;;;;;;;;1.50;99.90;;;;;;5081241;28;19921;-51
2022/01/08 05:44:16;;;;;;;;;;;1.40;99.90;;;;;;5089161;28;19924;-51
2022/01/08 05:46:46;;;;;;;;;;;1.40;99.90;;;;;;5087415;28;20039;-51
2022/01/08 05:49:15;;;;;;;;;;;1.30;99.90;;;;;;5085610;28;19928;-51
2022/01/08 05:51:41;;;;;;;;;;;1.40;99.90;;;;;;5077021;28;19930;-51
2022/01/08 05:54:08;;;;;;;;;;;1.40;99.90;;;;;;5075866;28;19947;-51
2022/01/08 05:56:35;;;;;;;;;;;1.30;99.90;;;;;;5073581;28;20356;-50
2022/01/08 05:59:02;;;;;;;;;;;1.20;99.90;;;;;;5071087;28;19924;-51
2022/01/08 06:01:29;;;;;;;;;;;1.10;99.90;;;;;;5072683;28;19940;-51
2022/01/08 06:03:57;;;;;;;;;;;1.10;99.90;;;;;;5072911;28;19929;-50
2022/01/08 06:06:24;;;;;;;;;;;1.00;99.90;;;;;;5072138;28;19993;-51
2022/01/08 06:08:51;;;;;;;;;;;0.80;99.90;;;;;;5072863;28;19928;-50
2022/01/08 06:11:17;;;;;;;;;;;0.80;99.90;;;;;;5072189;28;19928;-51
2022/01/08 06:13:44;;;;;;;;;;;0.80;99.90;;;;;;5073292;28;19970;-51
2022/01/08 06:16:11;;;;;;;;;;;0.80;99.90;;;;;;5073296;28;19978;-50
2022/01/08 06:18:38;;;;;;;;;;;0.80;99.90;;;;;;5072814;28;19993;-51
2022/01/08 06:21:06;;;;;;;;;;;0.70;99.90;;;;;;5072522;28;19986;-50
2022/01/08 06:23:33;;;;;;;;;;;0.70;99.90;;;;;;5073017;28;19928;-51
2022/01/08 06:26:00;;;;;;;;;;;0.70;99.90;;;;;;5074083;28;19924;-51
2022/01/08 06:28:27;;;;;;;;;;;0.80;99.90;;;;;;5079630;28;19925;-51
2022/01/08 06:30:54;;;;;;;;;;;0.70;99.90;;;;;;5072492;28;19982;-51
2022/01/08 06:33:21;;;;;;;;;;;0.70;99.90;;;;;;5073247;28;19981;-51
2022/01/08 06:35:48;;;;;;;;;;;0.60;99.90;;;;;;5072770;28;20390;-51
2022/01/08 06:38:16;;;;;;;;;;;0.60;99.90;;;;;;5072193;28;19932;-50
2022/01/08 06:40:43;;;;;;;;;;;0.60;99.90;;;;;;5071597;28;19955;-51
2022/01/08 06:43:10;;;;;;;;;;;0.60;99.90;;;;;;5072710;28;19970;-51
2022/01/08 06:45:37;;;;;;;;;;;0.60;99.90;;;;;;5072832;28;19985;-51
2022/01/08 06:48:04;;;;;;;;;;;0.70;99.90;;;;;;5072097;28;19982;-51
2022/01/08 06:50:31;;;;;;;;;;;0.80;99.90;;;;;;5072503;28;19924;-52
2022/01/08 06:52:59;;;;;;;;;;;0.80;99.90;;;;;;5072636;28;19978;-52
2022/01/08 06:55:27;;;;;;;;;;;0.80;99.90;;;;;;5072435;28;19924;-52
2022/01/08 06:57:56;;;;;;;;;;;0.80;99.90;;;;;;5072126;28;20428;-52
2022/01/08 07:00:23;;;;;;;;;;;0.80;99.90;;;;;;5072333;28;19928;-51
2022/01/08 07:02:49;;;;;;;;;;;0.70;99.90;;;;;;5072482;28;19970;-52
2022/01/08 07:05:16;;;;;;;;;;;0.50;99.90;;;;;;5068316;28;19928;-50
2022/01/08 07:07:43;;;;;;;;;;;0.60;99.90;;;;;;5072331;28;20015;-50
2022/01/08 07:10:10;;;;;;;;;;;0.50;99.90;;;;;;5072231;28;20443;-50
2022/01/08 07:12:38;;;;;;;;;;;0.50;99.90;;;;;;5077620;28;19986;-50
2022/01/08 07:15:05;;;;;;;;;;;0.50;99.90;;;;;;5086775;28;19924;-50
2022/01/08 07:17:32;;;;;;;;;;;0.50;99.90;;;;;;5075269;28;19970;-51
2022/01/08 07:19:59;;;;;;;;;;;0.50;99.90;;;;;;5075206;28;19978;-51
2022/01/08 07:22:25;;;;;;;;;;;0.50;99.90;;;;;;5067753;28;19925;-50
2022/01/08 07:24:52;;;;;;;;;;;0.60;99.90;;;;;;5053210;28;19929;-51
2022/01/08 07:27:19;;;;;;;;;;;0.60;99.90;;;;;;5070126;28;20401;-50
2022/01/08 07:29:47;;;;;;;;;;;0.70;99.90;;;;;;5071411;28;19924;-51
2022/01/08 07:32:14;;;;;;;;;;;0.70;99.90;;;;;;5071732;28;20012;-49
2022/01/08 07:34:40;;;;;;;;;;;0.70;99.90;;;;;;5072218;28;19925;-50
2022/01/08 07:37:07;;;;;;;;;;;0.70;99.90;;;;;;5072143;28;19924;-50
2022/01/08 07:39:34;;;;;;;;;;;0.70;99.90;;;;;;5071946;28;19928;-52
2022/01/08 07:42:01;;;;;;;;;;;0.80;99.90;;;;;;5070280;28;19978;-50
2022/01/08 07:44:28;;;;;;;;;;;0.70;99.90;;;;;;5073648;28;19924;-51
2022/01/08 07:46:57;;;;;;;;;;;0.70;99.90;;;;;;5070905;28;20369;-50
2022/01/08 07:49:24;;;;;;;;;;;0.80;99.90;;;;;;5071510;28;19925;-51
2022/01/08 07:51:51;;;;;;;;;;;0.80;99.90;;;;;;5072102;28;19924;-51
2022/01/08 07:54:17;;;;;;;;;;;0.80;99.90;;;;;;5065839;28;19975;-51
2022/01/08 07:56:44;;;;;;;;;;;0.90;99.90;;;;;;5052101;28;19982;-50
2022/01/08 07:59:11;;;;;;;;;;;0.90;99.90;;;;;;5059608;28;19970;-51
2022/01/08 08:01:38;;;;;;;;;;;0.90;99.90;;;;;;5071928;28;19978;-51
2022/01/08 08:04:07;;;;;;;;;;;0.90;99.90;;;;;;5072179;28;20313;-51
2022/01/08 08:06:36;;;;;;;;;;;1.00;99.90;;;;;;5071969;28;19925;-51
2022/01/08 08:09:03;;;;;;;;;;;1.00;99.90;;;;;;5070665;28;19967;-51
2022/01/08 08:11:33;;;;;;;;;;;1.00;99.90;;;;;;5068317;28;20054;-50
2022/01/08 08:13:59;;;;;;;;;;;1.00;99.90;;;;;;5066125;28;20258;-51
2022/01/08 08:16:26;;;;;;;;;;;1.10;99.90;;;;;;5071256;28;20347;-50
2022/01/08 08:18:53;;;;;;;;;;;1.10;99.90;;;;;;5070500;28;20386;-51
2022/01/08 08:21:21;;;;;;;;;;;1.30;99.90;;;;;;5075381;28;20344;-50
2022/01/08 08:23:48;;;;;;;;;;;1.60;99.90;;;;;;5075373;28;19928;-51
2022/01/08 08:26:15;;;;;;;;;;;1.60;99.90;;;;;;5074059;28;19928;-51
2022/01/08 08:28:41;;;;;;;;;;;1.60;99.90;;;;;;5072268;28;20071;-51
2022/01/08 08:31:11;;;;;;;;;;;1.60;99.90;;;;;;5071754;28;20012;-50
2022/01/08 08:33:38;;;;;;;;;;;1.60;99.90;;;;;;5076496;28;19924;-51
2022/01/08 08:36:05;;;;;;;;;;;1.60;99.90;;;;;;5074239;28;19924;-51
2022/01/08 08:38:33;;;;;;;;;;;1.80;99.90;;;;;;5074595;28;20359;-50
2022/01/08 08:41:00;;;;;;;;;;;2.00;99.90;;;;;;5075064;28;19928;-51
2022/01/08 08:43:27;;;;;;;;;;;2.10;99.90;;;;;;5074934;28;19924;-51
2022/01/08 08:45:53;;;;;;;;;;;2.30;99.90;;;;;;5075620;28;19932;-50
2022/01/08 08:48:20;;;;;;;;;;;2.30;99.90;;;;;;5076612;28;20026;-50
2022/01/08 08:50:47;;;;;;;;;;;2.40;99.90;;;;;;5074779;28;19931;-50
2022/01/08 08:53:14;;;;;;;;;;;2.40;99.90;;;;;;5075711;28;19928;-51
2022/01/08 08:55:42;;;;;;;;;;;2.40;99.90;;;;;;5077687;28;20389;-51
2022/01/08 08:58:09;;;;;;;;;;;2.30;99.90;;;;;;5080165;28;19928;-51
2022/01/08 09:00:36;;;;;;;;;;;2.00;99.90;;;;;;5077652;28;19928;-51
2022/01/08 09:03:02;;;;;;;;;;;1.90;99.90;;;;;;5076766;28;19924;-51
2022/01/08 09:05:29;;;;;;;;;;;1.80;99.90;;;;;;5075125;28;19932;-51
2022/01/08 09:07:56;;;;;;;;;;;1.70;99.90;;;;;;5076462;28;19925;-51
2022/01/08 09:10:25;;;;;;;;;;;1.70;99.90;;;;;;5075119;28;19929;-51
2022/01/08 09:12:56;;;;;;;;;;;1.80;99.90;;;;;;5074812;28;20011;-51
2022/01/08 09:15:25;;;;;;;;;;;2.00;99.90;;;;;;5076262;28;20393;-51
2022/01/08 09:17:52;;;;;;;;;;;2.10;99.90;;;;;;5074884;28;19925;-51
2022/01/08 09:20:19;;;;;;;;;;;2.10;99.90;;;;;;5073695;28;19928;-51
2022/01/08 09:22:46;;;;;;;;;;;2.20;99.90;;;;;;5067401;28;19932;-51
2022/01/08 09:25:13;;;;;;;;;;;2.10;99.90;;;;;;5074359;28;19924;-50
2022/01/08 09:27:39;;;;;;;;;;;2.10;99.90;;;;;;5075858;28;19975;-51
2022/01/08 09:30:08;;;;;;;;;;;2.10;99.90;;;;;;5076912;28;19977;-51
2022/01/08 09:32:35;;;;;;;;;;;2.00;99.90;;;;;;5074459;28;19978;-52
2022/01/08 09:35:02;;;;;;;;;;;2.10;99.90;;;;;;5074836;28;19977;-51
2022/01/08 09:37:29;;;;;;;;;;;2.10;99.90;;;;;;5076088;28;20364;-51
2022/01/08 09:39:56;;;;;;;;;;;2.20;99.90;;;;;;5078083;28;19954;-51
2022/01/08 09:42:23;;;;;;;;;;;2.40;99.90;;;;;;5071463;28;19970;-51
2022/01/08 09:44:49;;;;;;;;;;;2.60;99.90;;;;;;5074550;28;20027;-51
2022/01/08 09:47:18;;;;;;;;;;;2.50;99.90;;;;;;5072024;28;19928;-51
2022/01/08 09:49:44;;;;;;;;;;;2.60;99.90;;;;;;5069188;28;19932;-51
2022/01/08 09:52:12;;;;;;;;;;;2.70;99.90;;;;;;5063811;28;20413;-51
2022/01/08 09:54:40;;;;;;;;;;;2.60;99.90;;;;;;5070184;28;19985;-50
2022/01/08 09:57:07;;;;;;;;;;;2.60;99.90;;;;;;5065592;28;20499;-51
2022/01/08 09:59:34;;;;;;;;;;;2.70;99.90;;;;;;5071089;28;19925;-51
2022/01/08 10:02:02;;;;;;;;;;;2.90;99.90;;;;;;5073387;28;20305;-50
2022/01/08 10:04:31;;;;;;;;;;;3.00;99.90;;;;;;5072855;28;19924;-51
2022/01/08 10:07:12;;;;;;;;;;;3.20;99.90;;;;;;5072842;28;19973;-52
2022/01/08 10:09:40;;;;;;;;;;;3.30;99.90;;;;;;5072149;28;19928;-52
2022/01/08 10:12:07;;;;;;;;;;;3.60;99.90;;;;;;5070224;28;19925;-52
2022/01/08 10:17:13;;;;;;;;;;;4.10;99.90;;;;;;5072899;28;20389;-52
2022/01/08 10:17:35;;;;;;;;;;;5.30;99.90;;;;;;5070392;28;21754;-51
2022/01/08 10:20:03;;;;;;;;;;;6.70;99.90;;;;;;5063873;28;19920;-52
2022/01/08 10:22:30;;;;;;;;;;;8.90;99.90;;;;;;5072023;28;19984;-52
2022/01/08 10:25:10;;;;;;;;;;;10.00;99.90;;;;;;5072902;28;19970;-52
2022/01/08 10:27:38;;;;;;;;;;;9.80;99.90;;;;;;5072876;28;20405;-52
2022/01/08 10:30:25;;;;;;;;;;;9.50;99.90;;;;;;5052344;28;20066;-52
2022/01/08 10:32:55;;;;;;;;;;;10.10;99.90;;;;;;5058164;28;19979;-52
2022/01/08 10:35:45;;;;;;;;;;;10.00;99.90;;;;;;5065915;28;20386;-52
2022/01/08 10:38:11;;;;;;;;;;;9.60;99.90;;;;;;5071164;28;20005;-53
2022/01/08 10:40:38;;;;;;;;;;;9.50;99.90;;;;;;5063685;28;19931;-52
2022/01/08 10:43:17;;;;;;;;;;;9.90;99.90;;;;;;5072853;28;19929;-52
2022/01/08 10:45:44;;;;;;;;;;;9.60;99.90;;;;;;5072996;28;19985;-52
2022/01/08 10:48:11;;;;;;;;;;;9.00;99.90;;;;;;5073214;28;19932;-52
2022/01/08 10:50:39;;;;;;;;;;;8.00;99.90;;;;;;5072606;28;19924;-52
2022/01/08 10:53:06;;;;;;;;;;;7.40;99.90;;;;;;5056831;28;19937;-52
2022/01/08 10:55:33;;;;;;;;;;;6.90;99.90;;;;;;5069953;28;19935;-52
2022/01/08 10:58:03;;;;;;;;;;;6.40;99.90;;;;;;5072036;28;19924;-52
2022/01/08 11:00:31;;;;;;;;;;;6.10;99.90;;;;;;5071821;28;20423;-52
2022/01/08 11:02:58;;;;;;;;;;;5.90;99.90;;;;;;5072148;28;20618;-52
2022/01/08 11:05:25;;;;;;;;;;;5.70;99.90;;;;;;5072849;28;19925;-51
2022/01/08 11:07:53;;;;;;;;;;;5.40;99.90;;;;;;5076022;28;20357;-52
2022/01/08 11:10:21;;;;;;;;;;;5.50;99.90;;;;;;5080816;28;19928;-51
2022/01/08 11:12:49;;;;;;;;;;;5.50;99.90;;;;;;5080599;28;20379;-52
2022/01/08 11:15:36;;;;;;;;;;;5.60;99.90;;;;;;5083189;28;20022;-52
2022/01/08 11:18:03;;;;;;;;;;;5.60;99.90;;;;;;5075033;28;20363;-52
2022/01/08 11:20:31;;;;;;;;;;;5.50;99.90;;;;;;5084010;28;19960;-51
2022/01/08 11:23:01;;;;;;;;;;;5.80;99.90;;;;;;5092715;28;20337;-52
2022/01/08 11:25:30;;;;;;;;;;;6.00;99.90;;;;;;5073937;28;20394;-52
2022/01/08 11:28:00;;;;;;;;;;;6.20;99.90;;;;;;5072267;28;19925;-52
2022/01/08 11:30:27;;;;;;;;;;;5.80;99.90;;;;;;5071909;28;19924;-52
2022/01/08 11:32:58;;;;;;;;;;;5.70;99.90;;;;;;5072267;28;20386;-52
2022/01/08 11:35:25;;;;;;;;;;;5.60;99.90;;;;;;5071715;28;19925;-52
2022/01/08 11:37:56;;;;;;;;;;;5.50;99.90;;;;;;5071641;28;19924;-52
2022/01/08 11:40:25;;;;;;;;;;;5.40;99.90;;;;;;5072293;28;19930;-52
2022/01/08 11:42:52;;;;;;;;;;;5.30;99.90;;;;;;5071474;28;19924;-52
2022/01/08 11:45:21;;;;;;;;;;;5.30;99.90;;;;;;5071796;28;19925;-52
2022/01/08 11:47:50;;;;;;;;;;;5.20;99.90;;;;;;5066419;28;19928;-53
2022/01/08 11:50:19;;;;;;;;;;;5.00;99.90;;;;;;5071493;28;19929;-52
2022/01/08 11:52:46;;;;;;;;;;;4.90;99.90;;;;;;5070227;28;19932;-52
2022/01/08 11:55:13;;;;;;;;;;;5.00;99.90;;;;;;5061937;28;19929;-52
2022/01/08 11:57:41;;;;;;;;;;;5.10;99.90;;;;;;5074620;28;20459;-52
2022/01/08 12:00:09;;;;;;;;;;;5.30;99.90;;;;;;5075403;28;19933;-53
2022/01/08 12:02:38;;;;;;;;;;;5.20;99.90;;;;;;5076583;28;19978;-52
2022/01/08 12:05:05;;;;;;;;;;;5.20;99.90;;;;;;5075564;28;19979;-52
2022/01/08 12:07:35;;;;;;;;;;;5.30;99.90;;;;;;5074995;28;19982;-52
2022/01/08 12:10:09;;;;;;;;;;;5.10;99.90;;;;;;5074451;28;19955;-52
2022/01/08 12:12:45;;;;;;;;;;;5.20;99.90;;;;;;5055789;28;19925;-52
2022/01/08 12:15:11;;;;;;;;;;;5.30;99.90;;;;;;5070613;28;19924;-52
2022/01/08 12:17:52;;;;;;;;;;;5.30;99.90;;;;;;5074838;28;19924;-52
2022/01/08 12:20:33;;;;;;;;;;;5.30;99.90;;;;;;5074936;28;20042;-52
2022/01/08 12:23:19;;;;;;;;;;;5.30;99.90;;;;;;5075072;28;19933;-52
2022/01/08 12:25:46;;;;;;;;;;;5.30;99.90;;;;;;5075804;28;19925;-52
2022/01/08 12:28:39;;;;;;;;;;;5.30;99.90;;;;;;5075608;28;20368;-52
2022/01/08 12:31:24;;;;;;;;;;;5.20;99.90;;;;;;5075883;28;20030;-52
2022/01/08 12:34:06;;;;;;;;;;;5.10;99.90;;;;;;5075593;28;19925;-52
2022/01/08 12:36:33;;;;;;;;;;;5.20;99.90;;;;;;5073975;28;20305;-52
2022/01/08 12:39:04;;;;;;;;;;;5.20;99.90;;;;;;5073712;28;20402;-52
2022/01/08 12:41:31;;;;;;;;;;;5.40;99.90;;;;;;5075167;28;19924;-52
2022/01/08 12:44:19;;;;;;;;;;;5.40;99.90;;;;;;5074858;28;20344;-52
2022/01/08 12:46:46;;;;;;;;;;;5.50;99.90;;;;;;5074885;28;19925;-52
2022/01/08 12:49:14;;;;;;;;;;;5.50;99.90;;;;;;5074630;28;19929;-52
2022/01/08 12:51:42;;;;;;;;;;;5.40;99.90;;;;;;5075222;28;20476;-52
2022/01/08 12:54:09;;;;;;;;;;;5.30;99.90;;;;;;5075120;28;19928;-52
2022/01/08 12:56:35;;;;;;;;;;;5.30;99.90;;;;;;5075431;28;19970;-52
2022/01/08 12:59:05;;;;;;;;;;;5.40;99.90;;;;;;5074978;28;19925;-52
2022/01/08 13:01:31;;;;;;;;;;;5.40;99.90;;;;;;5075056;28;19924;-52
2022/01/08 13:03:59;;;;;;;;;;;5.20;99.90;;;;;;5075770;28;20354;-52
2022/01/08 13:06:34;;;;;;;;;;;5.20;99.90;;;;;;5076040;28;20378;-52
2022/01/08 13:09:02;;;;;;;;;;;5.30;99.90;;;;;;5075319;28;20345;-52
2022/01/08 13:11:31;;;;;;;;;;;5.40;99.90;;;;;;5075371;28;19929;-52
2022/01/08 13:14:00;;;;;;;;;;;5.40;99.90;;;;;;5074825;28;20393;-50
2022/01/08 13:16:29;;;;;;;;;;;5.30;99.90;;;;;;5075095;28;20007;-51
2022/01/08 13:18:57;;;;;;;;;;;5.40;99.90;;;;;;5074607;28;20336;-52
2022/01/08 13:21:24;;;;;;;;;;;5.60;99.90;;;;;;5074910;28;19929;-52
2022/01/08 13:23:52;;;;;;;;;;;5.60;99.90;;;;;;5074956;28;20499;-53
2022/01/08 13:26:27;;;;;;;;;;;5.70;99.90;;;;;;5073529;28;19925;-52
2022/01/08 13:28:54;;;;;;;;;;;5.80;99.90;;;;;;5074052;28;19929;-52
2022/01/08 13:31:21;;;;;;;;;;;5.70;99.90;;;;;;5074740;28;19928;-52
2022/01/08 13:33:55;;;;;;;;;;;5.70;99.90;;;;;;5074411;28;20363;-52
2022/01/08 13:36:22;;;;;;;;;;;5.90;99.90;;;;;;5074051;28;19924;-52
2022/01/08 13:38:49;;;;;;;;;;;5.80;99.90;;;;;;5073513;28;20386;-51
2022/01/08 13:41:17;;;;;;;;;;;5.70;99.90;;;;;;5072447;28;19928;-52
2022/01/08 13:43:54;;;;;;;;;;;5.70;99.90;;;;;;5069045;28;19924;-51
2022/01/08 13:46:21;;;;;;;;;;;5.80;99.90;;;;;;5073891;28;19998;-51
2022/01/08 13:48:47;;;;;;;;;;;5.80;99.90;;;;;;5069359;28;19928;-52
2022/01/08 13:51:18;;;;;;;;;;;5.50;99.90;;;;;;5075396;28;19982;-52
2022/01/08 13:53:55;;;;;;;;;;;5.30;99.90;;;;;;5072970;28;19925;-52
2022/01/08 13:56:23;;;;;;;;;;;5.10;99.90;;;;;;5080515;28;19924;-51
2022/01/08 13:58:49;;;;;;;;;;;5.00;99.90;;;;;;5084834;28;20382;-51
2022/01/08 14:01:17;;;;;;;;;;;5.10;99.90;;;;;;5073110;28;19990;-51
2022/01/08 14:03:45;;;;;;;;;;;5.00;99.90;;;;;;5075707;28;19924;-51
2022/01/08 14:06:23;;;;;;;;;;;5.00;99.90;;;;;;5080917;28;20305;-52
2022/01/08 14:08:52;;;;;;;;;;;5.00;99.90;;;;;;5072724;28;19978;-51
2022/01/08 14:11:20;;;;;;;;;;;5.00;99.90;;;;;;5074045;28;20447;-51
2022/01/08 14:13:53;;;;;;;;;;;5.00;99.90;;;;;;5073458;28;19977;-51
2022/01/08 14:16:26;;;;;;;;;;;4.90;99.90;;;;;;5072479;28;19925;-51
2022/01/08 14:18:53;;;;;;;;;;;4.90;99.90;;;;;;5074194;28;19925;-51
2022/01/08 14:21:22;;;;;;;;;;;4.80;99.90;;;;;;5089838;28;19963;-51
2022/01/08 14:23:50;;;;;;;;;;;4.80;99.90;;;;;;5089743;28;20019;-51
2022/01/08 14:26:17;;;;;;;;;;;4.70;99.90;;;;;;5073022;28;19924;-51
2022/01/08 14:28:59;;;;;;;;;;;4.70;99.90;;;;;;5072856;28;19978;-51
2022/01/08 14:31:29;;;;;;;;;;;4.70;99.90;;;;;;5078848;28;19924;-51
2022/01/08 14:34:00;;;;;;;;;;;4.60;99.90;;;;;;5072626;28;20019;-51
2022/01/08 14:36:27;;;;;;;;;;;4.40;99.90;;;;;;5078480;28;19963;-51
2022/01/08 14:38:55;;;;;;;;;;;4.50;99.90;;;;;;5094236;28;19977;-51
2022/01/08 14:41:32;;;;;;;;;;;4.50;99.90;;;;;;5074563;28;19977;-51
2022/01/08 14:43:59;;;;;;;;;;;4.40;99.90;;;;;;5072767;28;19924;-50
2022/01/08 14:46:26;;;;;;;;;;;4.10;99.90;;;;;;5076097;28;19924;-50
2022/01/08 14:48:53;;;;;;;;;;;3.90;99.90;;;;;;5089833;28;20393;-51
2022/01/08 14:51:20;;;;;;;;;;;3.60;99.90;;;;;;5077874;28;19932;-51